Time;durP1;ratioP1;P1;durP2;ratioP2;P2;SDS_P1;SDS_P2;PMS_P1;PMS_P2;Temp;Humidity;BMP_temperature;BMP_pressure;BME280_temperature;BME280_humidity;BME280_pressure;Samples;Min_cycle;Max_cycle;Signal;HPM_P1;HPM_P2
2021/06/12 00:01:50;;;;;;;1.77;1.67;;;25.70;77.70;;;;;;4998537;28;20561;-94
2021/06/12 00:04:16;;;;;;;1.90;1.70;;;25.70;77.80;;;;;;4997923;28;20463;-95
2021/06/12 00:06:44;;;;;;;1.90;1.80;;;25.70;77.80;;;;;;4998357;28;20448;-93
2021/06/12 00:09:10;;;;;;;1.70;1.60;;;25.70;77.70;;;;;;4998127;28;20438;-94
2021/06/12 00:11:36;;;;;;;1.70;1.60;;;25.70;77.80;;;;;;4998178;28;20482;-94
2021/06/12 00:14:32;;;;;;;1.80;1.70;;;25.70;77.80;;;;;;4998409;28;20459;-94
2021/06/12 00:16:59;;;;;;;1.50;1.40;;;25.70;77.70;;;;;;4998008;28;20430;-94
2021/06/12 00:19:25;;;;;;;2.07;1.87;;;25.70;77.90;;;;;;4998630;28;20492;-94
2021/06/12 00:21:53;;;;;;;1.70;1.60;;;25.70;77.90;;;;;;4998325;28;21025;-93
2021/06/12 00:24:20;;;;;;;2.23;1.73;;;25.70;77.90;;;;;;4981285;28;20440;-94
2021/06/12 00:26:46;;;;;;;1.40;1.30;;;25.70;77.90;;;;;;4999032;28;20513;-93
2021/06/12 00:29:12;;;;;;;1.70;1.60;;;25.70;77.90;;;;;;4998226;28;20967;-94
2021/06/12 00:31:39;;;;;;;1.50;1.40;;;25.70;77.90;;;;;;4998930;28;20451;-95
2021/06/12 00:34:05;;;;;;;1.47;1.37;;;25.70;78.00;;;;;;5000944;28;20458;-94
2021/06/12 00:36:32;;;;;;;1.83;1.73;;;25.70;77.90;;;;;;5002091;28;20509;-94
2021/06/12 00:38:59;;;;;;;1.60;1.50;;;25.70;77.90;;;;;;5011535;28;20475;-93
2021/06/12 00:41:26;;;;;;;1.40;1.30;;;25.70;77.90;;;;;;5008037;28;20500;-94
2021/06/12 00:43:52;;;;;;;1.50;1.40;;;25.70;77.90;;;;;;5007976;28;20459;-94
2021/06/12 00:46:19;;;;;;;1.90;1.80;;;25.70;77.90;;;;;;4997694;28;20487;-93
2021/06/12 00:48:46;;;;;;;1.60;1.50;;;25.70;77.90;;;;;;4997832;28;20531;-94
2021/06/12 00:51:13;;;;;;;2.27;1.90;;;25.70;78.00;;;;;;4997654;28;20509;-94
2021/06/12 00:53:41;;;;;;;1.80;1.70;;;25.70;78.00;;;;;;4997791;28;20907;-93
2021/06/12 00:56:11;;;;;;;1.70;1.60;;;25.70;78.90;;;;;;4996768;28;20538;-93
2021/06/12 00:58:42;;;;;;;1.77;1.67;;;25.60;78.00;;;;;;4996763;28;20454;-94
2021/06/12 01:01:10;;;;;;;1.60;1.50;;;25.70;78.00;;;;;;4997532;28;20476;-94
2021/06/12 01:03:39;;;;;;;1.67;1.57;;;25.60;78.00;;;;;;4996710;28;20471;-93
2021/06/12 01:06:06;;;;;;;1.90;1.80;;;25.70;78.10;;;;;;4996548;28;20472;-94
2021/06/12 01:08:33;;;;;;;2.00;1.90;;;25.70;78.10;;;;;;4996421;28;20551;-95
2021/06/12 01:10:59;;;;;;;3.23;1.93;;;25.70;78.10;;;;;;4996846;28;20899;-94
2021/06/12 01:13:33;;;;;;;1.70;1.60;;;25.70;78.10;;;;;;4996582;28;20547;-94
2021/06/12 01:16:03;;;;;;;2.00;1.90;;;25.70;78.10;;;;;;4997369;28;21015;-94
2021/06/12 01:18:32;;;;;;;1.70;1.60;;;25.70;78.10;;;;;;4996636;28;20454;-93
2021/06/12 01:21:11;;;;;;;1.83;1.73;;;25.70;78.10;;;;;;4996441;28;20448;-93
2021/06/12 01:24:08;;;;;;;1.80;1.70;;;25.70;78.10;;;;;;4996336;28;20938;-95
2021/06/12 01:26:49;;;;;;;1.57;1.47;;;25.70;78.00;;;;;;4995651;28;20580;-94
2021/06/12 01:29:26;;;;;;;2.10;2.00;;;25.70;78.10;;;;;;4995680;28;20448;-95
2021/06/12 01:31:55;;;;;;;1.70;1.60;;;25.70;79.00;;;;;;4996325;28;20480;-94
2021/06/12 01:34:23;;;;;;;1.90;1.80;;;25.70;78.30;;;;;;4996093;28;20456;-93
2021/06/12 01:36:51;;;;;;;2.20;2.10;;;25.70;78.20;;;;;;4996715;28;20456;-93
2021/06/12 01:39:23;;;;;;;1.90;1.80;;;25.70;78.20;;;;;;4995649;28;20483;-94
2021/06/12 01:41:51;;;;;;;1.60;1.50;;;25.70;78.20;;;;;;4996192;28;20467;-94
2021/06/12 01:44:19;;;;;;;1.67;1.57;;;25.70;78.20;;;;;;4995916;28;20543;-95
2021/06/12 01:47:00;;;;;;;2.70;2.10;;;25.80;78.20;;;;;;4995906;28;20461;-94
2021/06/12 01:49:27;;;;;;;2.10;2.00;;;25.70;78.10;;;;;;4995895;28;20513;-95
2021/06/12 01:51:54;;;;;;;1.50;1.40;;;25.70;78.10;;;;;;4996562;28;20475;-94
2021/06/12 01:54:22;;;;;;;1.50;1.40;;;25.70;78.10;;;;;;4996452;28;20946;-94
2021/06/12 01:56:49;;;;;;;1.67;1.57;;;25.70;78.20;;;;;;4995909;28;20448;-93
2021/06/12 01:59:16;;;;;;;2.03;1.93;;;25.70;78.20;;;;;;4996138;28;20443;-95
2021/06/12 02:01:47;;;;;;;1.73;1.63;;;25.70;78.20;;;;;;4996234;28;20448;-94
2021/06/12 02:04:17;;;;;;;1.63;1.53;;;25.70;78.20;;;;;;4996272;28;20447;-94
2021/06/12 02:06:45;;;;;;;1.77;1.67;;;25.70;78.10;;;;;;4995520;28;20479;-93
2021/06/12 02:09:12;;;;;;;1.70;1.60;;;25.70;78.20;;;;;;4995744;28;20467;-93
2021/06/12 02:11:40;;;;;;;1.70;1.60;;;25.70;78.20;;;;;;4994947;28;20486;-93
2021/06/12 02:14:08;;;;;;;2.20;2.00;;;25.70;78.20;;;;;;4995537;28;20498;-95
2021/06/12 02:16:37;;;;;;;1.63;1.53;;;25.70;78.20;;;;;;4995881;28;20926;-95
2021/06/12 02:19:04;;;;;;;1.57;1.47;;;25.70;78.10;;;;;;4995478;28;20543;-95
2021/06/12 02:21:34;;;;;;;1.80;1.70;;;25.70;78.20;;;;;;4995949;28;20926;-93
2021/06/12 02:24:01;;;;;;;1.60;1.50;;;25.70;78.20;;;;;;4995244;28;20527;-95
2021/06/12 02:26:40;;;;;;;1.80;1.70;;;25.70;78.20;;;;;;4995321;28;20577;-94
2021/06/12 02:29:07;;;;;;;1.77;1.67;;;25.70;78.10;;;;;;4995900;28;20868;-93
2021/06/12 02:31:44;;;;;;;1.80;1.70;;;25.70;78.20;;;;;;4995222;28;20443;-93
2021/06/12 02:34:10;;;;;;;1.77;1.67;;;25.70;78.20;;;;;;4995502;28;20450;-95
2021/06/12 02:36:38;;;;;;;1.77;1.67;;;25.70;78.20;;;;;;4995240;28;20996;-94
2021/06/12 02:39:06;;;;;;;1.80;1.70;;;25.70;78.20;;;;;;4995135;28;20448;-94
2021/06/12 02:41:33;;;;;;;1.87;1.77;;;25.70;78.20;;;;;;4994789;28;20911;-94
2021/06/12 02:43:59;;;;;;;1.60;1.50;;;25.70;78.20;;;;;;4994988;28;20981;-94
2021/06/12 02:46:31;;;;;;;1.50;1.40;;;25.70;78.10;;;;;;4995403;28;20493;-94
2021/06/12 02:49:00;;;;;;;2.13;1.93;;;25.70;78.20;;;;;;4996170;28;20442;-95
2021/06/12 02:51:28;;;;;;;1.80;1.70;;;25.70;78.20;;;;;;4994755;28;20518;-93
2021/06/12 02:53:58;;;;;;;1.80;1.70;;;25.70;78.30;;;;;;4995406;28;20534;-94
2021/06/12 02:56:26;;;;;;;1.80;1.70;;;25.70;78.20;;;;;;4995507;28;20441;-94
2021/06/12 02:58:59;;;;;;;1.60;1.50;;;25.70;78.30;;;;;;4994820;28;20530;-93
2021/06/12 03:01:28;;;;;;;1.60;1.50;;;25.70;78.30;;;;;;4995269;28;20829;-93
2021/06/12 03:03:55;;;;;;;1.60;1.50;;;25.70;78.30;;;;;;5016381;28;20448;-93
2021/06/12 03:06:47;;;;;;;1.40;1.30;;;25.70;78.30;;;;;;5018735;28;20538;-93
2021/06/12 03:09:17;;;;;;;1.87;1.77;;;25.70;78.20;;;;;;5019172;28;20469;-93
2021/06/12 03:11:45;;;;;;;1.60;1.50;;;25.70;78.30;;;;;;4997198;28;21069;-94
2021/06/12 03:14:13;;;;;;;1.30;1.20;;;25.70;78.40;;;;;;4995222;28;20444;-93
2021/06/12 03:16:42;;;;;;;1.40;1.30;;;25.80;78.40;;;;;;4995167;28;21025;-95
2021/06/12 03:19:11;;;;;;;1.80;1.70;;;25.70;78.40;;;;;;4995084;28;20527;-94
2021/06/12 03:21:39;;;;;;;1.70;1.60;;;25.70;78.40;;;;;;4994986;28;20470;-93
2021/06/12 03:24:06;;;;;;;1.63;1.53;;;25.70;78.40;;;;;;4994751;28;20894;-94
2021/06/12 03:26:35;;;;;;;1.70;1.60;;;25.70;78.40;;;;;;4995000;28;20480;-96
2021/06/12 03:29:03;;;;;;;1.63;1.53;;;25.70;78.40;;;;;;4995379;28;20549;-95
2021/06/12 03:31:30;;;;;;;1.80;1.70;;;25.70;78.40;;;;;;4995971;28;20539;-96
2021/06/12 03:33:58;;;;;;;1.40;1.30;;;25.70;78.40;;;;;;4994486;28;20547;-93
2021/06/12 03:36:26;;;;;;;1.43;1.33;;;25.70;78.40;;;;;;4994932;28;20439;-94
2021/06/12 03:38:53;;;;;;;1.70;1.60;;;25.70;78.40;;;;;;4994699;28;20443;-94
2021/06/12 03:41:20;;;;;;;1.67;1.57;;;25.70;78.40;;;;;;4994978;28;21077;-93
2021/06/12 03:43:50;;;;;;;1.60;1.50;;;25.70;78.40;;;;;;4995246;28;20446;-93
2021/06/12 03:46:17;;;;;;;1.70;1.60;;;25.70;78.40;;;;;;4994717;28;20476;-94
2021/06/12 03:48:46;;;;;;;1.80;1.70;;;25.70;78.50;;;;;;4994622;28;20458;-93
2021/06/12 03:51:14;;;;;;;1.70;1.60;;;25.70;78.50;;;;;;4995653;28;20519;-94
2021/06/12 03:53:44;;;;;;;1.90;1.80;;;25.70;78.50;;;;;;4998837;28;20866;-95
2021/06/12 03:56:12;;;;;;;1.50;1.40;;;25.70;78.50;;;;;;4998790;28;20498;-94
2021/06/12 03:58:40;;;;;;;1.77;1.67;;;25.70;78.50;;;;;;4997700;28;20557;-95
2021/06/12 04:01:08;;;;;;;2.13;2.03;;;25.80;78.60;;;;;;4999114;28;20487;-94
2021/06/12 04:03:34;;;;;;;1.80;1.70;;;25.70;78.60;;;;;;4997603;28;21040;-95
2021/06/12 04:06:00;;;;;;;1.30;1.20;;;25.70;78.50;;;;;;5000057;28;20918;-95
2021/06/12 04:08:27;;;;;;;1.70;1.60;;;25.70;78.50;;;;;;5002844;28;20510;-93
2021/06/12 04:10:54;;;;;;;1.57;1.47;;;25.70;78.60;;;;;;5008550;28;20543;-95
2021/06/12 04:13:20;;;;;;;1.50;1.40;;;25.70;78.60;;;;;;5004060;28;20523;-94
2021/06/12 04:15:46;;;;;;;1.60;1.50;;;25.70;78.60;;;;;;4997978;28;20457;-94
2021/06/12 04:18:15;;;;;;;2.00;1.80;;;25.70;78.60;;;;;;4997610;28;20475;-94
2021/06/12 04:20:41;;;;;;;1.67;1.57;;;25.70;78.60;;;;;;4998204;28;20772;-93
2021/06/12 04:23:08;;;;;;;1.73;1.63;;;25.70;78.60;;;;;;4997760;28;20460;-94
2021/06/12 04:25:34;;;;;;;1.60;1.50;;;25.60;78.60;;;;;;4997480;28;20474;-94
2021/06/12 04:28:00;;;;;;;1.70;1.60;;;25.70;78.70;;;;;;4997526;28;20871;-95
2021/06/12 04:30:27;;;;;;;1.80;1.70;;;25.70;78.60;;;;;;4998314;28;20452;-94
2021/06/12 04:32:53;;;;;;;1.67;1.57;;;25.70;78.60;;;;;;4996945;28;20447;-95
2021/06/12 04:35:21;;;;;;;1.77;1.67;;;25.60;78.60;;;;;;4997609;28;20854;-94
2021/06/12 04:37:48;;;;;;;1.67;1.57;;;25.70;78.70;;;;;;4998201;28;21024;-95
2021/06/12 04:40:15;;;;;;;1.90;1.80;;;25.70;78.70;;;;;;4999033;28;20475;-94
2021/06/12 04:42:42;;;;;;;1.80;1.70;;;25.70;78.70;;;;;;4998253;28;20518;-94
2021/06/12 04:45:10;;;;;;;1.70;1.60;;;25.70;78.70;;;;;;4998084;28;20483;-94
2021/06/12 04:47:37;;;;;;;1.47;1.37;;;25.70;78.70;;;;;;4999962;28;20534;-94
2021/06/12 04:50:05;;;;;;;1.50;1.40;;;25.70;78.70;;;;;;4998625;28;20454;-95
2021/06/12 04:52:33;;;;;;;1.50;1.40;;;25.70;78.70;;;;;;4998395;28;20452;-94
2021/06/12 04:54:59;;;;;;;1.90;1.80;;;25.70;78.70;;;;;;4996870;28;20969;-94
2021/06/12 04:57:26;;;;;;;1.73;1.63;;;25.70;78.70;;;;;;4997040;28;20490;-95
2021/06/12 04:59:52;;;;;;;1.40;1.30;;;25.60;78.70;;;;;;4998966;28;20451;-94
2021/06/12 05:02:19;;;;;;;1.50;1.40;;;25.60;78.70;;;;;;4999033;28;20483;-94
2021/06/12 05:04:45;;;;;;;1.57;1.47;;;25.60;79.50;;;;;;4996968;28;20464;-94
2021/06/12 05:07:13;;;;;;;1.60;1.50;;;25.60;78.70;;;;;;4998146;28;20493;-94
2021/06/12 05:09:41;;;;;;;1.53;1.43;;;25.60;78.70;;;;;;5000102;28;20451;-94
2021/06/12 05:12:10;;;;;;;1.60;1.50;;;25.80;78.80;;;;;;4998868;28;20483;-95
2021/06/12 05:14:36;;;;;;;1.43;1.33;;;25.60;78.60;;;;;;4997003;28;20461;-94
2021/06/12 05:17:06;;;;;;;1.60;1.50;;;25.60;78.70;;;;;;5000115;28;20923;-95
2021/06/12 05:19:33;;;;;;;1.50;1.40;;;25.60;78.70;;;;;;4997382;28;20479;-94
2021/06/12 05:22:00;;;;;;;1.70;1.60;;;25.60;78.60;;;;;;4996643;28;20526;-95
2021/06/12 05:24:26;;;;;;;1.50;1.40;;;25.60;78.60;;;;;;4996173;28;20781;-94
2021/06/12 05:26:54;;;;;;;1.70;1.60;;;25.60;78.60;;;;;;4996359;28;20518;-96
2021/06/12 05:29:20;;;;;;;1.40;1.30;;;25.60;78.60;;;;;;4997263;28;20920;-95
2021/06/12 05:31:47;;;;;;;1.73;1.50;;;25.60;78.60;;;;;;4996318;28;20444;-95
2021/06/12 05:34:13;;;;;;;1.60;1.50;;;25.60;78.50;;;;;;4996718;28;20514;-94
2021/06/12 05:36:40;;;;;;;1.47;1.37;;;25.70;78.50;;;;;;4996346;28;20894;-94
2021/06/12 05:39:09;;;;;;;1.60;1.50;;;25.70;78.50;;;;;;4998251;28;20476;-95
2021/06/12 05:41:35;;;;;;;1.83;1.73;;;25.60;78.60;;;;;;4997464;28;20477;-95
2021/06/12 05:44:03;;;;;;;1.60;1.50;;;25.60;78.50;;;;;;4996862;28;20875;-94
2021/06/12 05:46:30;;;;;;;1.80;1.60;;;25.60;78.50;;;;;;4996148;28;20490;-93
2021/06/12 05:48:56;;;;;;;1.70;1.60;;;25.60;78.50;;;;;;4996277;28;21002;-94
2021/06/12 05:51:23;;;;;;;1.80;1.70;;;25.60;78.40;;;;;;4996675;28;20440;-94
2021/06/12 05:53:49;;;;;;;1.40;1.13;;;25.60;78.40;;;;;;4996475;28;20550;-95
2021/06/12 05:56:15;;;;;;;1.87;1.77;;;25.60;78.50;;;;;;4996495;28;20513;-93
2021/06/12 05:58:42;;;;;;;1.60;1.50;;;25.60;78.50;;;;;;4996224;28;20912;-95
2021/06/12 06:01:11;;;;;;;1.60;1.50;;;25.60;78.40;;;;;;4995595;28;20815;-95
2021/06/12 06:03:38;;;;;;;1.80;1.70;;;25.60;78.40;;;;;;4995668;28;20454;-93
2021/06/12 06:06:09;;;;;;;1.70;1.60;;;25.60;78.40;;;;;;5001580;28;20487;-96
2021/06/12 06:08:44;;;;;;;1.47;1.37;;;25.70;78.50;;;;;;5004573;28;20519;-94
2021/06/12 06:11:11;;;;;;;1.73;1.63;;;25.60;78.30;;;;;;4996067;28;21080;-94
2021/06/12 06:13:38;;;;;;;1.80;1.70;;;25.70;78.50;;;;;;4995372;28;20452;-95
2021/06/12 06:16:05;;;;;;;1.30;1.20;;;25.70;78.50;;;;;;4995398;28;20841;-94
2021/06/12 06:18:33;;;;;;;1.53;1.43;;;25.60;78.30;;;;;;4995719;28;20455;-94
2021/06/12 06:21:00;;;;;;;1.90;1.80;;;25.60;78.30;;;;;;4995754;28;20498;-95
2021/06/12 06:23:26;;;;;;;1.43;1.33;;;25.60;78.30;;;;;;4996131;28;20550;-95
2021/06/12 06:25:53;;;;;;;1.67;1.57;;;25.60;78.30;;;;;;4995396;28;20478;-94
2021/06/12 06:28:19;;;;;;;1.20;1.10;;;25.60;78.20;;;;;;4995480;28;20453;-95
2021/06/12 06:30:45;;;;;;;1.60;1.50;;;25.60;78.20;;;;;;4994929;28;20853;-94
2021/06/12 06:33:12;;;;;;;1.50;1.40;;;25.60;78.20;;;;;;4995234;28;20930;-93
2021/06/12 06:35:40;;;;;;;1.60;1.50;;;25.70;78.30;;;;;;4995338;28;20492;-95
2021/06/12 06:38:07;;;;;;;1.83;1.20;;;25.60;78.10;;;;;;4995327;28;20450;-93
2021/06/12 06:40:34;;;;;;;1.50;1.40;;;25.60;78.10;;;;;;4995229;28;20477;-96
2021/06/12 06:43:00;;;;;;;1.83;1.43;;;25.70;78.20;;;;;;4995181;28;20452;-93
2021/06/12 06:45:27;;;;;;;1.53;1.43;;;25.70;78.20;;;;;;4995527;28;20490;-95
2021/06/12 06:47:53;;;;;;;1.70;1.60;;;25.60;78.00;;;;;;4995497;28;20459;-96
2021/06/12 06:50:20;;;;;;;1.40;1.30;;;25.60;78.10;;;;;;4995223;28;20950;-96
2021/06/12 06:52:49;;;;;;;1.20;1.10;;;25.60;78.10;;;;;;4995709;28;20451;-95
2021/06/12 06:55:16;;;;;;;1.40;1.30;;;25.70;78.10;;;;;;4995455;28;20537;-93
2021/06/12 06:57:42;;;;;;;1.50;1.40;;;25.60;78.00;;;;;;4995372;28;20446;-93
2021/06/12 07:00:10;;;;;;;1.50;1.40;;;25.70;78.10;;;;;;4995491;28;20471;-93
2021/06/12 07:02:36;;;;;;;1.40;1.30;;;25.70;78.00;;;;;;4995667;28;20448;-95
2021/06/12 07:05:03;;;;;;;1.73;1.63;;;25.60;78.00;;;;;;4995523;28;20819;-94
2021/06/12 07:07:29;;;;;;;1.73;1.63;;;25.70;78.10;;;;;;4995697;28;20452;-96
2021/06/12 07:09:57;;;;;;;1.50;1.40;;;25.60;78.00;;;;;;4996126;28;20558;-93
2021/06/12 07:12:24;;;;;;;1.43;1.33;;;25.70;78.10;;;;;;4995402;28;20574;-93
2021/06/12 07:14:50;;;;;;;1.77;1.67;;;25.70;78.00;;;;;;4995560;28;20466;-93
2021/06/12 07:17:16;;;;;;;1.77;1.67;;;25.70;78.10;;;;;;4996264;28;20854;-94
2021/06/12 07:19:43;;;;;;;1.30;1.20;;;25.60;78.00;;;;;;4997567;28;20455;-94
2021/06/12 07:22:09;;;;;;;1.40;1.30;;;25.60;77.90;;;;;;4997961;28;20451;-95
2021/06/12 07:24:35;;;;;;;1.40;1.30;;;25.60;77.90;;;;;;4998629;28;20451;-94
2021/06/12 07:27:04;;;;;;;1.50;1.40;;;25.70;78.00;;;;;;5004892;28;20483;-92
2021/06/12 07:29:30;;;;;;;1.60;1.50;;;25.60;77.90;;;;;;5005648;28;20459;-93
2021/06/12 07:31:56;;;;;;;1.37;1.27;;;25.60;78.00;;;;;;5005220;28;20451;-94
2021/06/12 07:34:23;;;;;;;1.30;1.20;;;25.70;78.00;;;;;;4999109;28;20459;-94
2021/06/12 07:36:49;;;;;;;1.60;1.50;;;25.60;77.90;;;;;;4998133;28;20809;-94
2021/06/12 07:39:15;;;;;;;1.67;1.57;;;25.60;78.80;;;;;;4998384;28;20534;-93
2021/06/12 07:41:42;;;;;;;1.53;1.43;;;25.60;78.00;;;;;;4998111;28;20459;-94
2021/06/12 07:44:10;;;;;;;1.70;1.60;;;25.60;78.00;;;;;;4998739;28;20450;-95
2021/06/12 07:46:36;;;;;;;1.63;1.53;;;25.80;78.10;;;;;;4998818;28;20483;-95
2021/06/12 07:49:05;;;;;;;2.00;1.90;;;25.70;77.90;;;;;;4999283;28;20956;-93
2021/06/12 07:51:37;;;;;;;1.67;1.57;;;25.60;77.90;;;;;;4999074;28;20534;-94
2021/06/12 07:54:04;;;;;;;1.70;1.60;;;25.70;78.00;;;;;;4999420;28;20534;-95
2021/06/12 07:56:30;;;;;;;1.53;1.43;;;25.60;77.80;;;;;;4998505;28;20446;-94
2021/06/12 07:58:57;;;;;;;1.60;1.50;;;25.60;78.00;;;;;;4998845;28;20467;-93
2021/06/12 08:01:27;;;;;;;1.73;1.63;;;25.60;77.90;;;;;;5001912;28;20450;-94
2021/06/12 08:03:56;;;;;;;1.77;1.67;;;25.60;77.90;;;;;;5021925;28;20441;-94
2021/06/12 08:06:23;;;;;;;1.50;1.40;;;25.60;77.90;;;;;;5021773;28;20463;-94
2021/06/12 08:08:49;;;;;;;1.97;1.87;;;25.60;77.90;;;;;;5021991;28;20455;-93
2021/06/12 08:11:15;;;;;;;1.30;1.20;;;25.60;78.00;;;;;;4998965;28;20483;-93
2021/06/12 08:13:42;;;;;;;1.77;1.67;;;25.60;78.00;;;;;;4999438;28;21006;-93
2021/06/12 08:16:09;;;;;;;1.80;1.70;;;25.70;78.00;;;;;;5000564;28;20451;-94
2021/06/12 08:18:36;;;;;;;1.40;1.30;;;25.60;78.00;;;;;;4998585;28;20939;-93
2021/06/12 08:21:03;;;;;;;1.97;1.87;;;25.60;78.00;;;;;;4997859;28;20506;-94
2021/06/12 08:23:30;;;;;;;1.70;1.60;;;25.60;78.00;;;;;;4997593;28;20450;-93
2021/06/12 08:25:57;;;;;;;1.40;1.30;;;25.60;78.00;;;;;;4997669;28;20479;-93
2021/06/12 08:28:23;;;;;;;1.80;1.70;;;25.60;78.00;;;;;;4997746;28;20476;-93
2021/06/12 08:30:50;;;;;;;1.77;1.53;;;25.60;78.00;;;;;;4997029;28;20447;-94
2021/06/12 08:33:16;;;;;;;1.87;1.77;;;25.60;78.00;;;;;;4997353;28;20798;-94
2021/06/12 08:35:44;;;;;;;1.90;1.80;;;25.60;78.00;;;;;;4997744;28;20538;-93
2021/06/12 08:38:10;;;;;;;1.70;1.60;;;25.60;78.00;;;;;;4996810;28;20977;-94
2021/06/12 08:40:37;;;;;;;1.57;1.47;;;25.60;78.10;;;;;;4997038;28;20467;-94
2021/06/12 08:43:05;;;;;;;1.67;1.57;;;25.60;78.00;;;;;;4997199;28;20443;-94
2021/06/12 08:45:33;;;;;;;1.57;1.47;;;25.60;78.00;;;;;;4997159;28;20471;-94
2021/06/12 08:48:01;;;;;;;1.70;1.60;;;25.80;78.10;;;;;;4997793;28;20882;-94
2021/06/12 08:50:28;;;;;;;1.50;1.40;;;25.60;78.00;;;;;;4997092;28;20542;-95
2021/06/12 08:52:58;;;;;;;1.70;1.60;;;25.60;77.80;;;;;;4997142;28;20884;-93
2021/06/12 08:55:24;;;;;;;1.50;1.40;;;25.70;77.60;;;;;;4996938;28;20537;-95
2021/06/12 08:57:51;;;;;;;1.60;1.50;;;25.60;77.50;;;;;;4997386;28;20451;-94
2021/06/12 09:00:19;;;;;;;1.60;1.50;;;25.60;77.40;;;;;;4996974;28;20626;-95
2021/06/12 09:03:08;;;;;;;1.67;1.57;;;25.60;77.40;;;;;;4997220;28;20455;-94
2021/06/12 09:05:49;;;;;;;1.50;1.40;;;25.60;77.20;;;;;;4997548;28;20574;-93
2021/06/12 09:08:18;;;;;;;1.60;1.50;;;25.60;77.30;;;;;;4997156;28;20446;-94
2021/06/12 09:10:47;;;;;;;1.80;1.70;;;25.60;77.40;;;;;;4996229;28;20481;-94
2021/06/12 09:13:13;;;;;;;1.97;1.87;;;25.60;77.60;;;;;;4997163;28;20447;-92
2021/06/12 09:15:40;;;;;;;1.80;1.70;;;25.60;77.50;;;;;;4996963;28;20451;-94
2021/06/12 09:18:07;;;;;;;1.60;1.50;;;25.60;77.50;;;;;;4997491;28;20459;-94
2021/06/12 09:20:45;;;;;;;1.73;1.63;;;25.60;77.50;;;;;;4996793;28;20454;-94
2021/06/12 09:23:15;;;;;;;1.83;1.73;;;25.60;77.50;;;;;;4996732;28;20934;-94
2021/06/12 09:25:45;;;;;;;1.83;1.73;;;25.60;77.50;;;;;;4996670;28;20555;-95
2021/06/12 09:28:11;;;;;;;1.80;1.67;;;25.60;77.40;;;;;;4996921;28;20455;-93
2021/06/12 09:30:38;;;;;;;1.93;1.83;;;25.60;77.60;;;;;;4996560;28;20449;-93
2021/06/12 09:33:05;;;;;;;2.07;1.97;;;25.60;77.60;;;;;;4996512;28;20792;-93
2021/06/12 09:35:33;;;;;;;2.20;2.10;;;25.60;77.60;;;;;;4996484;28;20523;-93
2021/06/12 09:38:00;;;;;;;1.83;1.73;;;25.60;77.60;;;;;;4996117;28;20541;-95
2021/06/12 09:40:31;;;;;;;1.97;1.87;;;25.60;77.50;;;;;;4995843;28;20473;-95
2021/06/12 09:43:01;;;;;;;1.77;1.67;;;25.60;77.60;;;;;;4996788;28;20810;-94
2021/06/12 09:45:29;;;;;;;1.80;1.70;;;25.60;77.50;;;;;;4995695;28;20448;-95
2021/06/12 09:48:09;;;;;;;2.00;1.90;;;25.60;77.60;;;;;;4978332;28;20444;-94
2021/06/12 09:50:36;;;;;;;2.10;2.00;;;25.60;77.60;;;;;;4995701;28;20547;-93
2021/06/12 09:53:11;;;;;;;2.47;2.27;;;25.60;77.60;;;;;;4996553;28;20513;-93
2021/06/12 09:55:38;;;;;;;2.00;1.90;;;25.60;77.60;;;;;;4996378;28;20460;-93
2021/06/12 09:58:06;;;;;;;1.93;1.83;;;25.60;77.60;;;;;;4995933;28;20449;-95
2021/06/12 10:00:36;;;;;;;1.73;1.63;;;25.60;77.50;;;;;;4996615;28;20444;-95
2021/06/12 10:03:04;;;;;;;1.97;1.87;;;25.60;77.50;;;;;;4996536;28;20515;-95
2021/06/12 10:05:30;;;;;;;2.10;2.00;;;25.60;77.50;;;;;;4996532;28;20451;-93
2021/06/12 10:07:57;;;;;;;1.90;1.80;;;25.60;77.50;;;;;;4995285;28;20456;-94
2021/06/12 10:10:24;;;;;;;1.90;1.50;;;25.60;77.60;;;;;;4995498;28;20487;-94
2021/06/12 10:12:51;;;;;;;1.77;1.67;;;25.60;77.50;;;;;;4995806;28;20475;-94
2021/06/12 10:15:19;;;;;;;2.00;1.90;;;25.60;77.50;;;;;;4996391;28;20482;-93
2021/06/12 10:17:48;;;;;;;2.00;1.90;;;25.60;77.60;;;;;;4996431;28;20541;-94
2021/06/12 10:20:18;;;;;;;2.20;2.00;;;25.60;78.30;;;;;;4995804;28;20447;-93
2021/06/12 10:22:46;;;;;;;1.77;1.67;;;25.60;77.50;;;;;;4996339;28;20554;-92
2021/06/12 10:25:15;;;;;;;1.90;1.80;;;25.60;77.60;;;;;;4996428;28;20500;-95
2021/06/12 10:27:43;;;;;;;1.73;1.63;;;25.60;77.50;;;;;;4997442;28;20459;-93
2021/06/12 10:30:11;;;;;;;1.97;1.87;;;25.60;77.50;;;;;;4995654;28;20450;-94
2021/06/12 10:32:44;;;;;;;1.70;1.60;;;25.60;77.50;;;;;;4996421;28;20517;-94
2021/06/12 10:35:11;;;;;;;1.80;1.70;;;25.60;77.50;;;;;;4995174;28;20458;-95
2021/06/12 10:37:58;;;;;;;2.00;1.90;;;25.60;77.50;;;;;;4995080;28;20458;-94
2021/06/12 10:40:39;;;;;;;1.63;1.53;;;25.60;77.40;;;;;;4995191;28;20470;-93
2021/06/12 10:43:14;;;;;;;2.03;1.93;;;25.60;77.50;;;;;;4995678;28;20451;-93
2021/06/12 10:45:43;;;;;;;1.90;1.80;;;25.60;77.50;;;;;;4995730;28;20471;-93
2021/06/12 10:48:44;;;;;;;1.90;1.80;;;25.60;77.60;;;;;;4996237;28;20448;-93
2021/06/12 10:51:12;;;;;;;2.40;2.30;;;25.60;77.50;;;;;;4996123;28;20471;-95
2021/06/12 10:53:41;;;;;;;1.80;1.70;;;25.60;77.60;;;;;;4996356;28;20524;-95
2021/06/12 10:56:08;;;;;;;1.93;1.83;;;25.60;77.60;;;;;;4997289;28;20493;-94
2021/06/12 10:58:58;;;;;;;1.90;1.80;;;25.60;77.60;;;;;;4996098;28;20479;-94
2021/06/12 11:01:25;;;;;;;1.70;1.60;;;25.60;77.50;;;;;;4975559;28;20897;-95
2021/06/12 11:03:59;;;;;;;1.90;1.80;;;25.60;77.60;;;;;;5006127;28;20448;-90
2021/06/12 11:06:34;;;;;;;1.80;1.70;;;25.60;77.50;;;;;;5010154;28;20488;-93
2021/06/12 11:09:29;;;;;;;2.20;2.10;;;25.60;77.70;;;;;;5004362;28;20945;-96
2021/06/12 11:11:57;;;;;;;2.00;1.90;;;25.60;77.60;;;;;;4996116;28;20493;-95
2021/06/12 11:14:28;;;;;;;2.00;1.90;;;25.60;77.60;;;;;;4998800;28;20457;-94
2021/06/12 11:17:17;;;;;;;2.00;1.90;;;25.60;77.60;;;;;;4999550;28;20450;-94
2021/06/12 11:19:48;;;;;;;2.13;2.03;;;25.60;77.60;;;;;;4998948;28;20451;-95
2021/06/12 11:22:39;;;;;;;2.00;1.90;;;25.60;77.70;;;;;;4998829;28;20509;-94
2021/06/12 11:25:37;;;;;;;1.73;1.63;;;25.60;77.60;;;;;;4979727;28;20881;-95
2021/06/12 11:28:18;;;;;;;2.10;1.90;;;25.60;77.60;;;;;;4998510;28;20458;-93
2021/06/12 11:30:44;;;;;;;1.60;1.50;;;25.60;77.70;;;;;;4998826;28;20535;-94
2021/06/12 11:33:13;;;;;;;2.37;2.17;;;25.60;77.60;;;;;;4998408;28;20444;-95
2021/06/12 11:35:53;;;;;;;1.60;1.50;;;25.60;77.60;;;;;;4998441;28;20539;-94
2021/06/12 11:38:21;;;;;;;2.43;2.00;;;25.60;77.60;;;;;;4998070;28;20454;-93
2021/06/12 11:40:56;;;;;;;2.00;1.90;;;25.60;77.60;;;;;;4998553;28;20563;-95
2021/06/12 11:43:39;;;;;;;1.90;1.80;;;25.60;77.50;;;;;;4998553;28;20535;-94
2021/06/12 11:46:07;;;;;;;1.93;1.83;;;25.60;77.60;;;;;;4998420;28;20562;-94
2021/06/12 11:48:38;;;;;;;1.80;1.70;;;25.60;77.70;;;;;;4998227;28;20537;-95
2021/06/12 11:51:20;;;;;;;2.00;1.90;;;25.60;77.50;;;;;;4998178;28;20534;-94
2021/06/12 11:54:11;;;;;;;1.70;1.60;;;25.60;77.60;;;;;;4998096;28;20535;-93
2021/06/12 11:56:49;;;;;;;1.77;1.67;;;25.60;77.60;;;;;;4998197;28;20462;-94
2021/06/12 11:59:17;;;;;;;1.70;1.60;;;25.60;77.40;;;;;;4998009;28;20445;-94
2021/06/12 12:01:45;;;;;;;1.60;1.50;;;25.70;77.60;;;;;;4998139;28;20518;-94
2021/06/12 12:04:14;;;;;;;2.00;1.90;;;25.60;77.50;;;;;;4998083;28;20462;-94
2021/06/12 12:06:50;;;;;;;1.50;1.40;;;25.50;77.50;;;;;;4997985;28;20482;-93
2021/06/12 12:09:28;;;;;;;1.63;1.53;;;25.60;77.50;;;;;;4998725;28;20469;-95
2021/06/12 12:11:59;;;;;;;1.60;1.50;;;25.70;77.60;;;;;;4997640;28;20499;-93
2021/06/12 12:14:34;;;;;;;1.97;1.87;;;25.60;77.50;;;;;;4997174;28;21010;-96
2021/06/12 12:17:01;;;;;;;1.83;1.73;;;25.70;77.50;;;;;;4998191;28;20451;-95
2021/06/12 12:19:28;;;;;;;2.30;2.20;;;25.60;77.50;;;;;;4998084;28;20454;-95
2021/06/12 12:21:58;;;;;;;1.50;1.40;;;25.70;77.60;;;;;;4997335;28;21002;-94
2021/06/12 12:24:28;;;;;;;2.10;2.00;;;25.70;77.60;;;;;;4997711;28;20539;-94
2021/06/12 12:26:59;;;;;;;1.50;1.40;;;25.60;77.40;;;;;;4997545;28;20569;-95
2021/06/12 12:29:27;;;;;;;2.00;1.80;;;25.70;77.50;;;;;;4997821;28;20541;-93
2021/06/12 12:31:54;;;;;;;1.70;1.60;;;25.70;77.50;;;;;;4997813;28;20803;-94
2021/06/12 12:34:38;;;;;;;1.80;1.70;;;25.70;77.50;;;;;;4997684;28;20577;-94
2021/06/12 12:37:09;;;;;;;2.10;2.00;;;25.70;77.40;;;;;;5000565;28;20450;-93
2021/06/12 12:39:37;;;;;;;1.80;1.70;;;25.70;77.40;;;;;;5000535;28;20494;-96
2021/06/12 12:42:05;;;;;;;1.60;1.50;;;25.70;77.50;;;;;;4997093;28;20459;-94
2021/06/12 12:44:32;;;;;;;1.73;1.63;;;25.70;77.40;;;;;;4997157;28;20539;-95
2021/06/12 12:46:58;;;;;;;1.40;1.30;;;25.70;77.40;;;;;;4999524;28;20479;-94
2021/06/12 12:49:27;;;;;;;2.20;2.00;;;25.70;77.40;;;;;;4998651;28;20452;-94
2021/06/12 12:51:56;;;;;;;1.80;1.70;;;25.70;77.40;;;;;;4998434;28;20558;-93
2021/06/12 12:54:25;;;;;;;1.90;1.80;;;25.70;77.30;;;;;;4997291;28;20447;-95
2021/06/12 12:56:55;;;;;;;1.87;1.50;;;25.70;77.50;;;;;;4997345;28;20542;-94
2021/06/12 12:59:30;;;;;;;1.60;1.50;;;25.70;77.40;;;;;;4999030;28;20459;-94